ADDS METAR Data INFO
IDs: Format: Raw Decoded Include TAF

Data at: 0220 UTC 18 Jan 2018

KFGN 180215Z AUTO 22009KT 10SM CLR M06/M08 A2972 RMK AO2
KFGN 180155Z AUTO 22007KT 10SM CLR M08/M10 A2972 RMK AO2
KFGN 180135Z AUTO 17003KT 10SM CLR M09/M12 A2973 RMK AO2
KFGN 180115Z AUTO 16004KT 10SM CLR M11/M12 A2974 RMK AO2
KFGN 180055Z AUTO 16005KT 10SM CLR M12/M13 A2975 RMK AO2
KFGN 180035Z AUTO 16006KT 10SM CLR M11/M13 A2975 RMK AO2
KFGN 180015Z AUTO 16005KT 10SM CLR M11/M13 A2976 RMK AO2
KFGN 172355Z AUTO 16006KT 10SM CLR M10/M13 A2977 RMK AO2
KFGN 172335Z AUTO 19005KT 10SM CLR M08/M12 A2977 RMK AO2
KFGN 172315Z AUTO 20006KT 10SM CLR M08/M11 A2978 RMK AO2
KFGN 172255Z AUTO 20006KT 10SM CLR M07/M11 A2978 RMK AO2
KFGN 172235Z AUTO 20007KT 10SM CLR M06/M11 A2978 RMK AO2
KFGN 172215Z AUTO 20008KT 10SM CLR M06/M11 A2977 RMK AO2
KFGN 172155Z AUTO 21009KT 10SM CLR M05/M11 A2977 RMK AO2
KFGN 172135Z AUTO 21009KT 10SM CLR M06/M11 A2977 RMK AO2
KFGN 172115Z AUTO 21010KT 10SM CLR M05/M11 A2977 RMK AO2
KFGN 172055Z AUTO 23010G13KT 10SM CLR M04/M12 A2978 RMK AO2
KFGN 172035Z AUTO 22013KT 10SM CLR M05/M11 A2977 RMK AO2
KFGN 172015Z AUTO 23009KT 10SM CLR M04/M12 A2977 RMK AO2
KFGN 171955Z AUTO 23010KT 10SM CLR M05/M12 A2978 RMK AO2
KFGN 171935Z AUTO 23009G15KT 10SM CLR M06/M12 A2979 RMK AO2
KFGN 171915Z AUTO 23007KT 10SM CLR M06/M13 A2980 RMK AO2
KFGN 171855Z AUTO 24008KT 10SM CLR M06/M13 A2981 RMK AO2
KFGN 171835Z AUTO 21008KT 10SM CLR M07/M13 A2982 RMK AO2
KFGN 171815Z AUTO 21008KT 10SM CLR M07/M14 A2982 RMK AO2
KFGN 171755Z AUTO 23009KT 10SM CLR M08/M14 A2983 RMK AO2
KFGN 171735Z AUTO 22007KT 10SM CLR M08/M14 A2984 RMK AO2
KFGN 171715Z AUTO 23006KT 10SM CLR M09/M15 A2985 RMK AO2
KFGN 171655Z AUTO 21005KT 10SM CLR M10/M16 A2985 RMK AO2
KFGN 171635Z AUTO 21005KT 10SM CLR M11/M16 A2985 RMK AO2
KFGN 171615Z AUTO 21006KT 10SM CLR M12/M17 A2985 RMK AO2
KFGN 171555Z AUTO 21009KT 10SM CLR M12/M17 A2984 RMK AO2
KFGN 171535Z AUTO 21008KT 10SM CLR M12/M17 A2985 RMK AO2
KFGN 171515Z AUTO 21008KT 10SM CLR M13/M17 A2985 RMK AO2
KFGN 171455Z AUTO 19007KT 10SM CLR M14/M18 A2984 RMK AO2
KFGN 171435Z AUTO 19006KT 10SM CLR M14/M18 A2985 RMK AO2
KFGN 171415Z AUTO 19006KT 10SM CLR M14/M18 A2987 RMK AO2
KFGN 171355Z AUTO 20006KT 10SM CLR M14/M18 A2988 RMK AO2
KFGN 171335Z AUTO 21007KT 10SM CLR M14/M18 A2988 RMK AO2
KFGN 171315Z AUTO 20009KT 10SM CLR M14/M18 A2988 RMK AO2
KFGN 171255Z AUTO 20010KT 10SM CLR M14/M18 A2989 RMK AO2
KFGN 171235Z AUTO 19008KT 10SM CLR M14/M18 A2990 RMK AO2
KFGN 171215Z AUTO 19009KT 10SM CLR M14/M18 A2992 RMK AO2
KFGN 171155Z AUTO 19007KT 10SM CLR M14/M18 A2993 RMK AO2
KFGN 171135Z AUTO 20006KT 10SM CLR M14/M18 A2994 RMK AO2
KFGN 171115Z AUTO 22007KT 10SM CLR M13/M18 A2996 RMK AO2
KFGN 171055Z AUTO 21009KT 10SM CLR M13/M18 A2995 RMK AO2
KFGN 171035Z AUTO 20010G14KT 10SM CLR M13/M18 A2995 RMK AO2
KFGN 171015Z AUTO 19009G15KT 10SM CLR M13/M18 A2996 RMK AO2
KFGN 170955Z AUTO 20011KT 10SM CLR M13/M18 A2998 RMK AO2
KFGN 170935Z AUTO 21012G16KT 10SM CLR M13/M18 A2999 RMK AO2
KFGN 170915Z AUTO 21013G20KT 10SM CLR M13/M18 A2999 RMK AO2
KFGN 170855Z AUTO 21013G18KT 10SM CLR M13/M18 A3001 RMK AO2
KFGN 170835Z AUTO 21014G18KT 10SM CLR M13/M18 A3002 RMK AO2
KFGN 170815Z AUTO 20011KT 10SM CLR M13/M18 A3003 RMK AO2
KFGN 170755Z AUTO 20011KT 10SM CLR M13/M18 A3004 RMK AO2
KFGN 170735Z AUTO 21011G17KT 10SM CLR M13/M18 A3005 RMK AO2
KFGN 170715Z AUTO 21012G17KT 10SM CLR M14/M18 A3006 RMK AO2
KFGN 170655Z AUTO 21014KT 10SM CLR M14/M19 A3006 RMK AO2
KFGN 170635Z AUTO 21012G18KT 10SM CLR M14/M19 A3008 RMK AO2
KFGN 170615Z AUTO 21013G19KT 10SM CLR M14/M19 A3009 RMK AO2
KFGN 170555Z AUTO 21014G19KT 10SM CLR M15/M19 A3010 RMK AO2
KFGN 170535Z AUTO 21017G24KT 10SM CLR M15/M19 A3010 RMK AO2
KFGN 170515Z AUTO 21014G19KT 10SM CLR M16/M20 A3012 RMK AO2
KFGN 170455Z AUTO 21015G18KT 10SM CLR M16/M20 A3014 RMK AO2
KFGN 170435Z AUTO 21015G18KT 10SM CLR M16/M21 A3015 RMK AO2
KFGN 170415Z AUTO 21015KT 10SM CLR M16/M21 A3016 RMK AO2
KFGN 170355Z AUTO 21016KT 10SM CLR M16/M21 A3017 RMK AO2
KFGN 170335Z AUTO 21014G18KT 10SM CLR M16/M21 A3019 RMK AO2
KFGN 170315Z AUTO 22014KT 10SM CLR M16/M22 A3021 RMK AO2
KFGN 170255Z AUTO 21014KT 10SM CLR M17/M22 A3021 RMK AO2
KFGN 170235Z AUTO 21015G20KT 10SM CLR M17/M22 A3022 RMK AO2
KFGN 170215Z AUTO 21014KT 10SM CLR M17/M22 A3024 RMK AO2
KFGN 170155Z AUTO 21013KT 10SM CLR M16/M22 A3025 RMK AO2
KFGN 170135Z AUTO 21015KT 10SM CLR M16/M22 A3026 RMK AO2
KFGN 170115Z AUTO 21013G18KT 10SM CLR M16/M22 A3027 RMK AO2
KFGN 170055Z AUTO 21014KT 10SM CLR M16/M22 A3028 RMK AO2
KFGN 170035Z AUTO 21014KT 10SM CLR M16/M22 A3029 RMK AO2
KFGN 170015Z AUTO 21013KT 10SM CLR M16/M21 A3031 RMK AO2
KFGN 162355Z AUTO 21015KT 10SM CLR M16/M21 A3032 RMK AO2
KFGN 162335Z AUTO 21013G17KT 10SM CLR M16/M21 A3034 RMK AO2
KFGN 162315Z AUTO 20012G17KT 10SM CLR M16/M21 A3034 RMK AO2
KFGN 162255Z AUTO 20010KT 10SM CLR M16/M21 A3036 RMK AO2
KFGN 162235Z AUTO 19010G15KT 10SM CLR M16/M21 A3037 RMK AO2
KFGN 162215Z AUTO 20010KT 10SM CLR M16/M21 A3038 RMK AO2
KFGN 162155Z AUTO 20008KT 10SM SCT100 M15/M21 A3039 RMK AO2
KFGN 162135Z AUTO 21011KT 10SM SCT100 M15/M21 A3039 RMK AO2
KFGN 162115Z AUTO 21012KT 10SM SCT100 M15/M21 A3041 RMK AO2
KFGN 162055Z AUTO 21013KT 10SM SCT090 M15/M21 A3041 RMK AO2
KFGN 162035Z AUTO 21010KT 10SM BKN100 M16/M21 A3043 RMK AO2
KFGN 162015Z AUTO 21011G14KT 10SM OVC100 M16/M22 A3044 RMK AO2
KFGN 161955Z AUTO 20009KT 10SM OVC100 M16/M22 A3045 RMK AO2
KFGN 161935Z AUTO 20007KT 10SM SCT100 SCT110 M17/M22 A3047 RMK AO2
KFGN 161915Z AUTO 21008KT 10SM BKN100 M17/M22 A3048 RMK AO2
KFGN 161855Z AUTO 22008KT 10SM SCT100 M18/M23 A3050 RMK AO2
KFGN 161835Z AUTO 22009KT 10SM SCT110 M18/M23 A3051 RMK AO2
KFGN 161815Z AUTO 17008KT 10SM SCT110 M19/M23 A3051 RMK AO2
KFGN 161755Z AUTO 17009KT 10SM SCT100 M20/M24 A3052 RMK AO2
KFGN 161735Z AUTO 16009KT 10SM SCT100 M21/M25 A3053 RMK AO2
KFGN 161715Z AUTO 19006KT 10SM CLR M20/M25 A3054 RMK AO2
KFGN 161655Z AUTO 19005KT 10SM SCT065 SCT090 M21/M26 A3056 RMK AO2
KFGN 161635Z AUTO 19004KT 10SM SCT090 M21/M26 A3058 RMK AO2
KFGN 161615Z AUTO 18004KT 10SM SCT070 M21/M26 A3058 RMK AO2
KFGN 161555Z AUTO 19004KT 10SM SCT080 SCT085 M22/M26 A3059 RMK AO2
KFGN 161535Z AUTO 17005KT 10SM SCT090 M24/M27 A3059 RMK AO2
KFGN 161515Z AUTO 17005KT 10SM CLR M24/M28 A3059 RMK AO2
KFGN 161455Z AUTO 19004KT 10SM CLR M25/M28 A3060 RMK AO2
KFGN 161435Z AUTO 19003KT 10SM CLR M26/M29 A3061 RMK AO2